sensor_id;sensor_type;location;lat;lon;timestamp;pressure;altitude;pressure_sealevel;temperature;humidity
13952;BME280;39535;52.192;9.886;2023-07-02T00:01:29;99629.56;;;16.05;100.00
13952;BME280;39535;52.192;9.886;2023-07-02T00:03:57;99651.38;;;16.07;100.00
13952;BME280;39535;52.192;9.886;2023-07-02T00:06:23;99649.34;;;16.13;100.00
13952;BME280;39535;52.192;9.886;2023-07-02T00:08:50;99660.38;;;16.19;100.00
13952;BME280;39535;52.192;9.886;2023-07-02T00:11:16;99663.69;;;16.07;100.00
13952;BME280;39535;52.192;9.886;2023-07-02T00:13:43;99668.53;;;16.15;100.00
13952;BME280;39535;52.192;9.886;2023-07-02T00:16:09;99669.56;;;16.12;100.00
13952;BME280;39535;52.192;9.886;2023-07-02T00:18:35;99654.94;;;16.22;100.00
13952;BME280;39535;52.192;9.886;2023-07-02T00:21:03;99669.06;;;16.05;100.00
13952;BME280;39535;52.192;9.886;2023-07-02T00:23:30;99680.25;;;16.09;100.00
13952;BME280;39535;52.192;9.886;2023-07-02T00:25:56;99664.44;;;16.09;100.00
13952;BME280;39535;52.192;9.886;2023-07-02T00:28:23;99646.22;;;16.22;100.00
13952;BME280;39535;52.192;9.886;2023-07-02T00:30:50;99640.09;;;16.37;100.00
13952;BME280;39535;52.192;9.886;2023-07-02T00:33:16;99654.59;;;16.44;100.00
13952;BME280;39535;52.192;9.886;2023-07-02T00:35:42;99667.28;;;16.54;100.00
13952;BME280;39535;52.192;9.886;2023-07-02T00:38:10;99673.13;;;16.59;100.00
13952;BME280;39535;52.192;9.886;2023-07-02T00:40:36;99688.50;;;16.51;100.00
13952;BME280;39535;52.192;9.886;2023-07-02T00:43:03;99699.47;;;16.43;100.00
13952;BME280;39535;52.192;9.886;2023-07-02T00:45:29;99697.44;;;16.48;100.00
13952;BME280;39535;52.192;9.886;2023-07-02T00:47:56;99705.66;;;16.26;100.00
13952;BME280;39535;52.192;9.886;2023-07-02T00:50:24;99702.63;;;16.34;100.00
13952;BME280;39535;52.192;9.886;2023-07-02T00:52:52;99702.03;;;16.44;100.00
13952;BME280;39535;52.192;9.886;2023-07-02T00:55:21;99713.75;;;16.55;100.00
13952;BME280;39535;52.192;9.886;2023-07-02T00:57:47;99718.84;;;16.58;100.00
13952;BME280;39535;52.192;9.886;2023-07-02T01:00:14;99738.06;;;16.60;100.00
13952;BME280;39535;52.192;9.886;2023-07-02T01:02:40;99739.00;;;16.59;100.00
13952;BME280;39535;52.192;9.886;2023-07-02T01:05:09;99739.44;;;16.51;100.00
13952;BME280;39535;52.192;9.886;2023-07-02T01:07:35;99743.41;;;16.58;100.00
13952;BME280;39535;52.192;9.886;2023-07-02T01:10:02;99731.53;;;16.51;100.00
13952;BME280;39535;52.192;9.886;2023-07-02T01:12:30;99732.03;;;16.58;100.00
13952;BME280;39535;52.192;9.886;2023-07-02T01:14:58;99731.06;;;16.43;100.00
13952;BME280;39535;52.192;9.886;2023-07-02T01:17:27;99730.84;;;16.47;100.00
13952;BME280;39535;52.192;9.886;2023-07-02T01:20:05;99726.00;;;16.40;100.00
13952;BME280;39535;52.192;9.886;2023-07-02T01:22:34;99731.06;;;16.43;100.00
13952;BME280;39535;52.192;9.886;2023-07-02T01:25:00;99712.38;;;16.16;100.00
13952;BME280;39535;52.192;9.886;2023-07-02T01:27:28;99703.59;;;16.15;100.00
13952;BME280;39535;52.192;9.886;2023-07-02T01:29:55;99687.22;;;16.10;100.00
13952;BME280;39535;52.192;9.886;2023-07-02T01:32:22;99680.50;;;16.20;100.00
13952;BME280;39535;52.192;9.886;2023-07-02T01:34:48;99670.41;;;16.13;100.00
13952;BME280;39535;52.192;9.886;2023-07-02T01:37:19;99671.69;;;16.21;100.00
13952;BME280;39535;52.192;9.886;2023-07-02T01:39:46;99678.50;;;16.25;100.00
13952;BME280;39535;52.192;9.886;2023-07-02T01:42:13;99705.66;;;16.26;100.00
13952;BME280;39535;52.192;9.886;2023-07-02T01:44:41;99730.56;;;16.20;100.00
13952;BME280;39535;52.192;9.886;2023-07-02T01:47:08;99742.78;;;16.21;100.00
13952;BME280;39535;52.192;9.886;2023-07-02T01:49:34;99754.09;;;16.23;99.93
13952;BME280;39535;52.192;9.886;2023-07-02T01:52:01;99768.09;;;16.24;99.51
13952;BME280;39535;52.192;9.886;2023-07-02T01:54:30;99776.00;;;16.24;99.15
13952;BME280;39535;52.192;9.886;2023-07-02T01:56:57;99768.66;;;16.13;99.09
13952;BME280;39535;52.192;9.886;2023-07-02T01:59:23;99773.69;;;16.18;99.25
13952;BME280;39535;52.192;9.886;2023-07-02T02:01:49;99768.34;;;16.19;99.15
13952;BME280;39535;52.192;9.886;2023-07-02T02:04:16;99784.38;;;16.15;99.05
13952;BME280;39535;52.192;9.886;2023-07-02T02:06:43;99780.91;;;16.14;98.83
13952;BME280;39535;52.192;9.886;2023-07-02T02:09:09;99800.56;;;16.07;98.47
13952;BME280;39535;52.192;9.886;2023-07-02T02:11:41;99779.53;;;16.07;98.71
13952;BME280;39535;52.192;9.886;2023-07-02T02:14:07;99776.88;;;16.07;98.81
13952;BME280;39535;52.192;9.886;2023-07-02T02:16:34;99774.44;;;16.04;98.89
13952;BME280;39535;52.192;9.886;2023-07-02T02:19:00;99777.28;;;15.99;98.88
13952;BME280;39535;52.192;9.886;2023-07-02T02:21:27;99762.94;;;16.05;99.54
13952;BME280;39535;52.192;9.886;2023-07-02T02:23:53;99756.41;;;15.96;99.92
13952;BME280;39535;52.192;9.886;2023-07-02T02:26:20;99754.16;;;15.88;100.00
13952;BME280;39535;52.192;9.886;2023-07-02T02:28:48;99720.03;;;15.87;100.00
13952;BME280;39535;52.192;9.886;2023-07-02T02:31:15;99713.72;;;15.89;100.00
13952;BME280;39535;52.192;9.886;2023-07-02T02:33:41;99718.53;;;15.99;100.00
13952;BME280;39535;52.192;9.886;2023-07-02T02:36:08;99716.66;;;16.01;100.00
13952;BME280;39535;52.192;9.886;2023-07-02T02:38:34;99716.44;;;16.05;100.00
13952;BME280;39535;52.192;9.886;2023-07-02T02:41:02;99718.59;;;15.97;100.00
13952;BME280;39535;52.192;9.886;2023-07-02T02:43:29;99718.53;;;15.99;100.00
13952;BME280;39535;52.192;9.886;2023-07-02T02:45:56;99710.97;;;15.93;100.00
13952;BME280;39535;52.192;9.886;2023-07-02T02:48:22;99701.53;;;15.88;100.00
13952;BME280;39535;52.192;9.886;2023-07-02T02:50:49;99703.81;;;15.95;100.00
13952;BME280;39535;52.192;9.886;2023-07-02T02:53:15;99688.22;;;15.92;100.00
13952;BME280;39535;52.192;9.886;2023-07-02T02:55:41;99678.09;;;15.84;100.00
13952;BME280;39535;52.192;9.886;2023-07-02T02:58:08;99667.94;;;15.94;100.00
13952;BME280;39535;52.192;9.886;2023-07-02T03:00:34;99654.75;;;15.94;100.00
13952;BME280;39535;52.192;9.886;2023-07-02T03:03:02;99659.69;;;16.00;100.00
13952;BME280;39535;52.192;9.886;2023-07-02T03:05:29;99656.13;;;16.01;100.00
13952;BME280;39535;52.192;9.886;2023-07-02T03:07:56;99652.91;;;15.96;100.00
13952;BME280;39535;52.192;9.886;2023-07-02T03:10:22;99656.94;;;16.01;100.00
13952;BME280;39535;52.192;9.886;2023-07-02T03:12:48;99660.69;;;15.97;100.00
13952;BME280;39535;52.192;9.886;2023-07-02T03:15:15;99652.56;;;16.02;100.00
13952;BME280;39535;52.192;9.886;2023-07-02T03:17:42;99666.41;;;16.05;100.00
13952;BME280;39535;52.192;9.886;2023-07-02T03:20:11;99659.94;;;16.11;100.00
13952;BME280;39535;52.192;9.886;2023-07-02T03:22:37;99658.25;;;16.10;100.00
13952;BME280;39535;52.192;9.886;2023-07-02T03:25:08;99639.75;;;15.96;100.00
13952;BME280;39535;52.192;9.886;2023-07-02T03:27:35;99637.09;;;15.96;100.00
13952;BME280;39535;52.192;9.886;2023-07-02T03:30:01;99616.13;;;15.94;100.00
13952;BME280;39535;52.192;9.886;2023-07-02T03:32:28;99617.56;;;16.00;100.00
13952;BME280;39535;52.192;9.886;2023-07-02T03:34:55;99619.19;;;16.02;100.00
13952;BME280;39535;52.192;9.886;2023-07-02T03:37:22;99621.66;;;16.05;100.00
13952;BME280;39535;52.192;9.886;2023-07-02T03:39:49;99627.00;;;16.04;100.00
13952;BME280;39535;52.192;9.886;2023-07-02T03:42:15;99624.09;;;16.08;100.00
13952;BME280;39535;52.192;9.886;2023-07-02T03:44:41;99631.09;;;16.10;100.00
13952;BME280;39535;52.192;9.886;2023-07-02T03:47:08;99640.09;;;16.05;100.00
13952;BME280;39535;52.192;9.886;2023-07-02T03:49:34;99631.50;;;16.02;100.00
13952;BME280;39535;52.192;9.886;2023-07-02T03:52:00;99635.41;;;16.11;100.00
13952;BME280;39535;52.192;9.886;2023-07-02T03:54:28;99643.22;;;16.12;100.00
13952;BME280;39535;52.192;9.886;2023-07-02T03:56:54;99642.72;;;16.05;100.00
13952;BME280;39535;52.192;9.886;2023-07-02T03:59:20;99649.25;;;15.98;100.00
13952;BME280;39535;52.192;9.886;2023-07-02T04:01:47;99638.53;;;16.01;100.00
13952;BME280;39535;52.192;9.886;2023-07-02T04:04:13;99631.50;;;16.02;100.00
13952;BME280;39535;52.192;9.886;2023-07-02T04:06:39;99634.56;;;16.10;100.00
13952;BME280;39535;52.192;9.886;2023-07-02T04:09:06;99635.91;;;16.17;100.00
13952;BME280;39535;52.192;9.886;2023-07-02T04:11:33;99642.88;;;16.18;100.00
13952;BME280;39535;52.192;9.886;2023-07-02T04:14:00;99636.59;;;16.05;100.00
13952;BME280;39535;52.192;9.886;2023-07-02T04:16:26;99637.00;;;16.13;100.00
13952;BME280;39535;52.192;9.886;2023-07-02T04:18:52;99642.72;;;16.21;100.00
13952;BME280;39535;52.192;9.886;2023-07-02T04:21:19;99640.88;;;16.23;100.00
13952;BME280;39535;52.192;9.886;2023-07-02T04:23:45;99645.88;;;16.28;100.00
13952;BME280;39535;52.192;9.886;2023-07-02T04:26:11;99635.34;;;16.28;100.00
13952;BME280;39535;52.192;9.886;2023-07-02T04:28:39;99656.22;;;16.31;100.00
13952;BME280;39535;52.192;9.886;2023-07-02T04:31:05;99656.72;;;16.06;100.00
13952;BME280;39535;52.192;9.886;2023-07-02T04:33:32;99660.69;;;15.97;100.00
13952;BME280;39535;52.192;9.886;2023-07-02T04:36:01;99665.81;;;16.16;100.00
13952;BME280;39535;52.192;9.886;2023-07-02T04:38:28;99659.28;;;16.23;100.00
13952;BME280;39535;52.192;9.886;2023-07-02T04:40:54;99657.25;;;16.28;100.00
13952;BME280;39535;52.192;9.886;2023-07-02T04:43:26;99660.28;;;16.21;100.00
13952;BME280;39535;52.192;9.886;2023-07-02T04:45:55;99654.78;;;16.25;100.00
13952;BME280;39535;52.192;9.886;2023-07-02T04:48:22;99649.41;;;16.27;100.00
13952;BME280;39535;52.192;9.886;2023-07-02T04:50:49;99647.19;;;16.19;100.00
13952;BME280;39535;52.192;9.886;2023-07-02T04:53:16;99652.56;;;16.18;100.00
13952;BME280;39535;52.192;9.886;2023-07-02T04:55:43;99668.75;;;15.94;100.00
13952;BME280;39535;52.192;9.886;2023-07-02T04:58:09;99708.28;;;15.07;100.00
13952;BME280;39535;52.192;9.886;2023-07-02T05:00:36;99708.53;;;14.26;100.00
13952;BME280;39535;52.192;9.886;2023-07-02T05:03:03;99644.56;;;13.51;100.00
13952;BME280;39535;52.192;9.886;2023-07-02T05:05:30;99602.75;;;13.28;100.00
13952;BME280;39535;52.192;9.886;2023-07-02T05:07:56;99560.16;;;13.23;100.00
13952;BME280;39535;52.192;9.886;2023-07-02T05:10:23;99536.41;;;13.26;100.00
13952;BME280;39535;52.192;9.886;2023-07-02T05:12:49;99541.59;;;13.27;100.00
13952;BME280;39535;52.192;9.886;2023-07-02T05:15:16;99541.66;;;13.46;100.00
13952;BME280;39535;52.192;9.886;2023-07-02T05:17:43;99541.59;;;13.67;100.00
13952;BME280;39535;52.192;9.886;2023-07-02T05:20:11;99552.09;;;13.86;100.00
13952;BME280;39535;52.192;9.886;2023-07-02T05:22:38;99567.38;;;13.95;100.00
13952;BME280;39535;52.192;9.886;2023-07-02T05:25:05;99603.34;;;13.74;100.00
13952;BME280;39535;52.192;9.886;2023-07-02T05:27:31;99615.78;;;13.89;100.00
13952;BME280;39535;52.192;9.886;2023-07-02T05:29:57;99620.38;;;14.03;100.00
13952;BME280;39535;52.192;9.886;2023-07-02T05:32:24;99631.66;;;14.05;100.00
13952;BME280;39535;52.192;9.886;2023-07-02T05:34:50;99635.63;;;14.14;100.00
13952;BME280;39535;52.192;9.886;2023-07-02T05:37:18;99643.56;;;14.13;100.00
13952;BME280;39535;52.192;9.886;2023-07-02T05:39:45;99664.13;;;14.22;100.00
13952;BME280;39535;52.192;9.886;2023-07-02T05:42:11;99659.91;;;14.19;100.00
13952;BME280;39535;52.192;9.886;2023-07-02T05:44:37;99663.63;;;14.33;100.00
13952;BME280;39535;52.192;9.886;2023-07-02T05:47:04;99670.84;;;14.46;100.00
13952;BME280;39535;52.192;9.886;2023-07-02T05:49:30;99682.59;;;14.58;100.00
13952;BME280;39535;52.192;9.886;2023-07-02T05:51:56;99691.19;;;14.62;100.00
13952;BME280;39535;52.192;9.886;2023-07-02T05:54:24;99682.69;;;14.74;100.00
13952;BME280;39535;52.192;9.886;2023-07-02T05:56:50;99708.84;;;14.77;100.00
13952;BME280;39535;52.192;9.886;2023-07-02T05:59:16;99712.19;;;14.81;100.00
13952;BME280;39535;52.192;9.886;2023-07-02T06:01:44;99707.69;;;14.83;100.00
13952;BME280;39535;52.192;9.886;2023-07-02T06:04:11;99700.91;;;14.60;100.00
13952;BME280;39535;52.192;9.886;2023-07-02T06:06:37;99683.16;;;14.65;100.00
13952;BME280;39535;52.192;9.886;2023-07-02T06:09:03;99674.75;;;14.76;100.00
13952;BME280;39535;52.192;9.886;2023-07-02T06:11:31;99666.69;;;14.61;100.00
13952;BME280;39535;52.192;9.886;2023-07-02T06:13:57;99663.09;;;14.81;100.00
13952;BME280;39535;52.192;9.886;2023-07-02T06:16:25;99676.00;;;14.86;100.00
13952;BME280;39535;52.192;9.886;2023-07-02T06:18:51;99681.97;;;14.89;100.00
13952;BME280;39535;52.192;9.886;2023-07-02T06:21:17;99686.50;;;14.86;100.00
13952;BME280;39535;52.192;9.886;2023-07-02T06:23:44;99685.13;;;14.96;100.00
13952;BME280;39535;52.192;9.886;2023-07-02T06:26:11;99676.56;;;15.10;100.00
13952;BME280;39535;52.192;9.886;2023-07-02T06:28:39;99685.00;;;15.17;100.00
13952;BME280;39535;52.192;9.886;2023-07-02T06:31:05;99698.91;;;15.01;100.00
13952;BME280;39535;52.192;9.886;2023-07-02T06:33:32;99702.63;;;15.15;100.00
13952;BME280;39535;52.192;9.886;2023-07-02T06:35:59;99694.66;;;15.16;100.00
13952;BME280;39535;52.192;9.886;2023-07-02T06:38:25;99714.38;;;15.25;100.00
13952;BME280;39535;52.192;9.886;2023-07-02T06:40:51;99731.47;;;15.34;100.00
13952;BME280;39535;52.192;9.886;2023-07-02T06:43:18;99754.84;;;15.22;100.00
13952;BME280;39535;52.192;9.886;2023-07-02T06:45:45;99752.13;;;15.24;100.00
13952;BME280;39535;52.192;9.886;2023-07-02T06:48:12;99744.47;;;15.37;100.00
13952;BME280;39535;52.192;9.886;2023-07-02T06:50:43;99739.44;;;15.49;100.00
13952;BME280;39535;52.192;9.886;2023-07-02T06:53:12;99748.34;;;15.64;100.00
13952;BME280;39535;52.192;9.886;2023-07-02T06:55:39;99788.53;;;15.68;100.00
13952;BME280;39535;52.192;9.886;2023-07-02T06:58:06;99814.16;;;15.82;100.00
13952;BME280;39535;52.192;9.886;2023-07-02T07:00:32;99827.53;;;15.95;100.00
13952;BME280;39535;52.192;9.886;2023-07-02T07:03:01;99858.22;;;15.96;100.00
13952;BME280;39535;52.192;9.886;2023-07-02T07:05:29;99871.38;;;15.96;100.00
13952;BME280;39535;52.192;9.886;2023-07-02T07:07:55;99906.50;;;15.95;100.00
13952;BME280;39535;52.192;9.886;2023-07-02T07:10:22;99898.16;;;16.04;100.00
13952;BME280;39535;52.192;9.886;2023-07-02T07:12:48;99885.59;;;16.09;100.00
13952;BME280;39535;52.192;9.886;2023-07-02T07:15:18;99897.69;;;16.13;100.00
13952;BME280;39535;52.192;9.886;2023-07-02T07:17:45;99900.31;;;16.31;100.00
13952;BME280;39535;52.192;9.886;2023-07-02T07:20:13;99919.53;;;16.33;100.00
13952;BME280;39535;52.192;9.886;2023-07-02T07:22:40;99989.16;;;16.27;96.40
13952;BME280;39535;52.192;9.886;2023-07-02T07:25:07;100009.25;;;16.30;95.82
13952;BME280;39535;52.192;9.886;2023-07-02T07:27:34;100012.88;;;16.44;96.50
13952;BME280;39535;52.192;9.886;2023-07-02T07:30:01;100027.84;;;16.44;95.10
13952;BME280;39535;52.192;9.886;2023-07-02T07:32:28;100089.28;;;16.44;93.02
13952;BME280;39535;52.192;9.886;2023-07-02T07:34:54;100069.31;;;16.58;94.05
13952;BME280;39535;52.192;9.886;2023-07-02T07:37:24;100119.38;;;16.58;91.28
13952;BME280;39535;52.192;9.886;2023-07-02T07:39:51;100115.59;;;16.63;91.27
13952;BME280;39535;52.192;9.886;2023-07-02T07:42:17;100160.03;;;16.71;88.25
13952;BME280;39535;52.192;9.886;2023-07-02T07:44:44;100272.16;;;16.59;84.29
13952;BME280;39535;52.192;9.886;2023-07-02T07:47:10;100318.03;;;16.55;82.99
13952;BME280;39535;52.192;9.886;2023-07-02T07:49:37;100372.13;;;16.62;81.46
13952;BME280;39535;52.192;9.886;2023-07-02T07:52:04;100337.88;;;16.62;83.49
13952;BME280;39535;52.192;9.886;2023-07-02T07:54:33;100461.81;;;16.61;77.06
13952;BME280;39535;52.192;9.886;2023-07-02T07:57:00;100506.38;;;16.67;76.26
13952;BME280;39535;52.192;9.886;2023-07-02T07:59:26;100482.22;;;16.76;78.30
13952;BME280;39535;52.192;9.886;2023-07-02T08:01:53;100548.19;;;16.75;75.33
13952;BME280;39535;52.192;9.886;2023-07-02T08:04:19;100579.72;;;16.78;74.43
13952;BME280;39535;52.192;9.886;2023-07-02T08:06:46;100658.78;;;16.78;70.38
13952;BME280;39535;52.192;9.886;2023-07-02T08:09:12;100686.91;;;16.79;70.92
13952;BME280;39535;52.192;9.886;2023-07-02T08:11:40;100659.06;;;16.94;73.58
13952;BME280;39535;52.192;9.886;2023-07-02T08:14:06;100635.69;;;16.84;72.04
13952;BME280;39535;52.192;9.886;2023-07-02T08:16:33;100593.59;;;17.03;74.66
13952;BME280;39535;52.192;9.886;2023-07-02T08:19:00;100561.41;;;17.16;74.25
13952;BME280;39535;52.192;9.886;2023-07-02T08:21:27;100542.16;;;17.14;74.19
13952;BME280;39535;52.192;9.886;2023-07-02T08:23:53;100597.59;;;17.12;72.92
13952;BME280;39535;52.192;9.886;2023-07-02T08:26:19;100586.78;;;16.98;73.21
13952;BME280;39535;52.192;9.886;2023-07-02T08:28:48;100650.47;;;16.88;69.49
13952;BME280;39535;52.192;9.886;2023-07-02T08:31:16;100698.66;;;16.70;68.55
13952;BME280;39535;52.192;9.886;2023-07-02T08:33:42;100673.75;;;16.77;70.20
13952;BME280;39535;52.192;9.886;2023-07-02T08:36:08;100664.91;;;16.78;70.10
13952;BME280;39535;52.192;9.886;2023-07-02T08:38:35;100669.97;;;16.62;69.93
13952;BME280;39535;52.192;9.886;2023-07-02T08:41:04;100678.25;;;16.53;69.71
13952;BME280;39535;52.192;9.886;2023-07-02T08:43:31;100632.47;;;16.56;72.47
13952;BME280;39535;52.192;9.886;2023-07-02T08:45:59;100628.78;;;16.60;71.16
13952;BME280;39535;52.192;9.886;2023-07-02T08:48:26;100612.66;;;16.67;71.02
13952;BME280;39535;52.192;9.886;2023-07-02T08:50:54;100609.53;;;16.58;71.52
13952;BME280;39535;52.192;9.886;2023-07-02T08:53:21;100616.19;;;16.66;71.33
13952;BME280;39535;52.192;9.886;2023-07-02T08:55:50;100590.66;;;16.46;71.53
13952;BME280;39535;52.192;9.886;2023-07-02T08:58:17;100583.38;;;16.53;72.11
13952;BME280;39535;52.192;9.886;2023-07-02T09:01:09;100580.72;;;16.75;71.20
13952;BME280;39535;52.192;9.886;2023-07-02T09:03:36;100617.13;;;16.87;68.49
13952;BME280;39535;52.192;9.886;2023-07-02T09:06:03;100675.94;;;16.90;67.78
13952;BME280;39535;52.192;9.886;2023-07-02T09:08:33;100680.03;;;16.97;68.96
13952;BME280;39535;52.192;9.886;2023-07-02T09:11:06;100640.47;;;16.97;71.33
13952;BME280;39535;52.192;9.886;2023-07-02T09:13:42;100644.28;;;16.90;69.23
13952;BME280;39535;52.192;9.886;2023-07-02T09:16:20;100624.13;;;17.09;70.26
13952;BME280;39535;52.192;9.886;2023-07-02T09:18:55;100573.84;;;17.12;71.42
13952;BME280;39535;52.192;9.886;2023-07-02T09:21:22;100579.31;;;17.28;70.86
13952;BME280;39535;52.192;9.886;2023-07-02T09:23:48;100666.53;;;17.25;66.07
13952;BME280;39535;52.192;9.886;2023-07-02T09:26:19;100729.41;;;17.56;66.40
13952;BME280;39535;52.192;9.886;2023-07-02T09:28:45;100705.75;;;17.94;67.75
13952;BME280;39535;52.192;9.886;2023-07-02T09:31:13;100830.00;;;17.91;60.68
13952;BME280;39535;52.192;9.886;2023-07-02T09:33:39;100901.59;;;17.85;62.04
13952;BME280;39535;52.192;9.886;2023-07-02T09:36:06;100935.84;;;17.64;59.21
13952;BME280;39535;52.192;9.886;2023-07-02T09:38:33;100990.25;;;17.69;59.62
13952;BME280;39535;52.192;9.886;2023-07-02T09:40:59;101007.13;;;17.88;60.17
13952;BME280;39535;52.192;9.886;2023-07-02T09:43:26;101021.69;;;17.75;59.67
13952;BME280;39535;52.192;9.886;2023-07-02T09:45:54;100987.06;;;17.82;60.59
13952;BME280;39535;52.192;9.886;2023-07-02T09:48:24;100990.53;;;17.84;59.42
13952;BME280;39535;52.192;9.886;2023-07-02T09:50:51;100977.66;;;17.97;59.29
13952;BME280;39535;52.192;9.886;2023-07-02T09:53:17;100987.44;;;17.95;58.17
13952;BME280;39535;52.192;9.886;2023-07-02T09:55:44;100990.81;;;17.99;59.73
13952;BME280;39535;52.192;9.886;2023-07-02T09:58:10;101039.72;;;18.09;58.21
13952;BME280;39535;52.192;9.886;2023-07-02T10:00:38;101014.47;;;18.02;57.69
13952;BME280;39535;52.192;9.886;2023-07-02T10:03:05;101029.69;;;18.17;58.25
13952;BME280;39535;52.192;9.886;2023-07-02T10:05:33;101033.06;;;18.21;56.50
13952;BME280;39535;52.192;9.886;2023-07-02T10:08:11;101087.16;;;18.12;56.35
13952;BME280;39535;52.192;9.886;2023-07-02T10:10:38;101098.44;;;17.94;55.36
13952;BME280;39535;52.192;9.886;2023-07-02T10:13:05;101072.91;;;17.94;57.50
13952;BME280;39535;52.192;9.886;2023-07-02T10:15:31;101054.41;;;18.16;56.17
13952;BME280;39535;52.192;9.886;2023-07-02T10:18:03;101070.00;;;18.22;56.74
13952;BME280;39535;52.192;9.886;2023-07-02T10:20:35;101076.78;;;18.30;54.89
13952;BME280;39535;52.192;9.886;2023-07-02T10:23:02;101119.47;;;18.41;53.78
13952;BME280;39535;52.192;9.886;2023-07-02T10:25:30;101160.28;;;18.56;53.96
13952;BME280;39535;52.192;9.886;2023-07-02T10:27:57;101160.59;;;18.26;54.76
13952;BME280;39535;52.192;9.886;2023-07-02T10:30:36;101176.81;;;18.17;56.29
13952;BME280;39535;52.192;9.886;2023-07-02T10:33:10;101134.31;;;17.99;55.37
13952;BME280;39535;52.192;9.886;2023-07-02T10:35:38;101148.31;;;17.54;55.95
13952;BME280;39535;52.192;9.886;2023-07-02T10:38:06;101104.13;;;17.59;58.05
13952;BME280;39535;52.192;9.886;2023-07-02T10:40:33;101039.56;;;17.68;58.46
13952;BME280;39535;52.192;9.886;2023-07-02T10:42:59;101019.13;;;17.95;58.08
13952;BME280;39535;52.192;9.886;2023-07-02T10:45:32;101009.34;;;18.19;57.72
13952;BME280;39535;52.192;9.886;2023-07-02T10:48:00;101062.34;;;18.37;56.07
13952;BME280;39535;52.192;9.886;2023-07-02T10:50:27;101122.44;;;18.55;54.01
13952;BME280;39535;52.192;9.886;2023-07-02T10:52:55;101179.88;;;18.72;53.05
13952;BME280;39535;52.192;9.886;2023-07-02T10:55:23;101238.03;;;18.74;52.15
13952;BME280;39535;52.192;9.886;2023-07-02T10:58:02;101261.13;;;18.92;52.38
13952;BME280;39535;52.192;9.886;2023-07-02T11:00:29;101261.81;;;19.18;53.40
13952;BME280;39535;52.192;9.886;2023-07-02T11:02:56;101241.91;;;19.30;51.85
13952;BME280;39535;52.192;9.886;2023-07-02T11:05:22;101304.88;;;19.01;50.98
13952;BME280;39535;52.192;9.886;2023-07-02T11:07:49;101325.84;;;18.83;51.20
13952;BME280;39535;52.192;9.886;2023-07-02T11:10:23;101306.63;;;19.00;51.59
13952;BME280;39535;52.192;9.886;2023-07-02T11:12:51;101230.41;;;19.31;54.91
13952;BME280;39535;52.192;9.886;2023-07-02T11:15:18;101219.03;;;19.49;52.24
13952;BME280;39535;52.192;9.886;2023-07-02T11:17:44;101254.91;;;19.56;52.85
13952;BME280;39535;52.192;9.886;2023-07-02T11:20:12;101264.94;;;19.48;51.44
13952;BME280;39535;52.192;9.886;2023-07-02T11:22:42;101312.34;;;19.34;50.18
13952;BME280;39535;52.192;9.886;2023-07-02T11:25:11;101340.06;;;19.03;50.51
13952;BME280;39535;52.192;9.886;2023-07-02T11:27:39;101341.59;;;18.87;50.69
13952;BME280;39535;52.192;9.886;2023-07-02T11:30:06;101323.81;;;18.90;51.38
13952;BME280;39535;52.192;9.886;2023-07-02T11:32:36;101315.38;;;18.80;50.50
13952;BME280;39535;52.192;9.886;2023-07-02T11:35:13;101284.81;;;18.95;50.61
13952;BME280;39535;52.192;9.886;2023-07-02T11:37:40;101289.03;;;19.21;50.97
13952;BME280;39535;52.192;9.886;2023-07-02T11:40:07;101307.59;;;19.42;50.64
13952;BME280;39535;52.192;9.886;2023-07-02T11:42:34;101397.41;;;20.32;47.27
13952;BME280;39535;52.192;9.886;2023-07-02T11:45:02;101492.41;;;20.83;45.37
13952;BME280;39535;52.192;9.886;2023-07-02T11:47:28;101534.63;;;20.47;46.44
13952;BME280;39535;52.192;9.886;2023-07-02T11:49:55;101518.53;;;20.09;47.55
13952;BME280;39535;52.192;9.886;2023-07-02T11:52:21;101501.16;;;19.58;47.98
13952;BME280;39535;52.192;9.886;2023-07-02T11:54:48;101422.19;;;19.45;49.17
13952;BME280;39535;52.192;9.886;2023-07-02T11:57:14;101413.19;;;19.28;48.94
13952;BME280;39535;52.192;9.886;2023-07-02T11:59:41;101369.19;;;19.03;50.58
13952;BME280;39535;52.192;9.886;2023-07-02T12:02:08;101288.19;;;18.99;52.25
13952;BME280;39535;52.192;9.886;2023-07-02T12:04:35;101311.69;;;19.29;48.66
13952;BME280;39535;52.192;9.886;2023-07-02T12:07:02;101341.00;;;20.08;48.77
13952;BME280;39535;52.192;9.886;2023-07-02T12:09:28;101423.53;;;19.78;46.79
13952;BME280;39535;52.192;9.886;2023-07-02T12:11:55;101432.22;;;19.81;48.58
13952;BME280;39535;52.192;9.886;2023-07-02T12:14:21;101448.91;;;19.39;47.04
13952;BME280;39535;52.192;9.886;2023-07-02T12:16:47;101406.41;;;19.20;49.37
13952;BME280;39535;52.192;9.886;2023-07-02T12:19:15;101360.06;;;19.10;49.52
13952;BME280;39535;52.192;9.886;2023-07-02T12:21:41;101331.25;;;19.24;49.81
13952;BME280;39535;52.192;9.886;2023-07-02T12:24:11;101304.19;;;19.38;50.09
13952;BME280;39535;52.192;9.886;2023-07-02T12:26:39;101295.47;;;19.79;49.97
13952;BME280;39535;52.192;9.886;2023-07-02T12:29:06;101309.53;;;20.39;49.00
13952;BME280;39535;52.192;9.886;2023-07-02T12:31:32;101356.56;;;20.55;46.39
13952;BME280;39535;52.192;9.886;2023-07-02T12:34:06;101437.63;;;20.00;47.04
13952;BME280;39535;52.192;9.886;2023-07-02T12:36:33;101433.66;;;20.11;47.68
13952;BME280;39535;52.192;9.886;2023-07-02T12:39:00;101416.53;;;19.55;48.63
13952;BME280;39535;52.192;9.886;2023-07-02T12:41:27;101402.09;;;19.62;48.54
13952;BME280;39535;52.192;9.886;2023-07-02T12:43:54;101364.03;;;19.64;49.51
13952;BME280;39535;52.192;9.886;2023-07-02T12:46:24;101342.16;;;19.81;49.74
13952;BME280;39535;52.192;9.886;2023-07-02T12:48:50;101324.44;;;19.82;48.65
13952;BME280;39535;52.192;9.886;2023-07-02T12:51:17;101386.59;;;19.95;47.32